sensor_id;sensor_type;location;lat;lon;timestamp;P1;durP1;ratioP1;P2;durP2;ratioP2
66741;SDS011;53654;54.152;19.432;2023-07-13T00:01:15;6.40;;;5.70;;
66741;SDS011;53654;54.152;19.432;2023-07-13T00:03:44;6.00;;;5.50;;
66741;SDS011;53654;54.152;19.432;2023-07-13T00:06:13;8.80;;;5.60;;
66741;SDS011;53654;54.152;19.432;2023-07-13T00:08:42;6.00;;;5.50;;
66741;SDS011;53654;54.152;19.432;2023-07-13T00:11:11;7.20;;;5.80;;
66741;SDS011;53654;54.152;19.432;2023-07-13T00:13:39;6.70;;;5.70;;
66741;SDS011;53654;54.152;19.432;2023-07-13T00:16:08;6.60;;;5.90;;
66741;SDS011;53654;54.152;19.432;2023-07-13T00:18:37;7.40;;;5.90;;
66741;SDS011;53654;54.152;19.432;2023-07-13T00:21:06;6.10;;;5.50;;
66741;SDS011;53654;54.152;19.432;2023-07-13T00:23:35;6.50;;;5.80;;
66741;SDS011;53654;54.152;19.432;2023-07-13T00:26:04;6.20;;;5.60;;
66741;SDS011;53654;54.152;19.432;2023-07-13T00:28:35;6.00;;;5.40;;
66741;SDS011;53654;54.152;19.432;2023-07-13T00:31:05;6.00;;;5.50;;
66741;SDS011;53654;54.152;19.432;2023-07-13T00:33:36;6.00;;;5.40;;
66741;SDS011;53654;54.152;19.432;2023-07-13T00:36:05;6.30;;;5.50;;
66741;SDS011;53654;54.152;19.432;2023-07-13T00:38:33;6.40;;;5.70;;
66741;SDS011;53654;54.152;19.432;2023-07-13T00:41:01;5.80;;;5.30;;
66741;SDS011;53654;54.152;19.432;2023-07-13T00:43:31;6.20;;;5.60;;
66741;SDS011;53654;54.152;19.432;2023-07-13T00:48:40;6.30;;;5.50;;
66741;SDS011;53654;54.152;19.432;2023-07-13T00:51:11;6.00;;;5.40;;
66741;SDS011;53654;54.152;19.432;2023-07-13T00:53:40;6.10;;;5.60;;
66741;SDS011;53654;54.152;19.432;2023-07-13T00:56:09;6.30;;;5.40;;
66741;SDS011;53654;54.152;19.432;2023-07-13T00:58:38;7.00;;;5.90;;
66741;SDS011;53654;54.152;19.432;2023-07-13T01:01:06;6.20;;;5.60;;
66741;SDS011;53654;54.152;19.432;2023-07-13T01:03:35;6.80;;;6.10;;
66741;SDS011;53654;54.152;19.432;2023-07-13T01:06:03;6.50;;;5.80;;
66741;SDS011;53654;54.152;19.432;2023-07-13T01:08:32;5.80;;;5.30;;
66741;SDS011;53654;54.152;19.432;2023-07-13T01:11:00;6.10;;;5.60;;
66741;SDS011;53654;54.152;19.432;2023-07-13T01:13:29;6.60;;;5.80;;
66741;SDS011;53654;54.152;19.432;2023-07-13T01:15:58;6.10;;;5.40;;
66741;SDS011;53654;54.152;19.432;2023-07-13T01:18:30;5.30;;;4.90;;
66741;SDS011;53654;54.152;19.432;2023-07-13T01:21:00;6.10;;;5.50;;
66741;SDS011;53654;54.152;19.432;2023-07-13T01:23:30;6.50;;;5.30;;
66741;SDS011;53654;54.152;19.432;2023-07-13T01:25:59;7.20;;;5.50;;
66741;SDS011;53654;54.152;19.432;2023-07-13T01:28:28;5.90;;;5.40;;
66741;SDS011;53654;54.152;19.432;2023-07-13T01:30:57;7.10;;;5.30;;
66741;SDS011;53654;54.152;19.432;2023-07-13T01:33:26;6.80;;;5.40;;
66741;SDS011;53654;54.152;19.432;2023-07-13T01:35:56;6.60;;;5.30;;
66741;SDS011;53654;54.152;19.432;2023-07-13T01:38:27;6.40;;;5.30;;
66741;SDS011;53654;54.152;19.432;2023-07-13T01:40:55;6.00;;;5.20;;
66741;SDS011;53654;54.152;19.432;2023-07-13T01:43:25;6.80;;;5.30;;
66741;SDS011;53654;54.152;19.432;2023-07-13T01:45:53;7.20;;;5.40;;
66741;SDS011;53654;54.152;19.432;2023-07-13T01:48:33;6.20;;;5.40;;
66741;SDS011;53654;54.152;19.432;2023-07-13T01:51:01;5.70;;;5.20;;
66741;SDS011;53654;54.152;19.432;2023-07-13T01:53:29;6.50;;;5.50;;
66741;SDS011;53654;54.152;19.432;2023-07-13T01:55:58;6.30;;;5.60;;
66741;SDS011;53654;54.152;19.432;2023-07-13T01:58:26;7.70;;;5.90;;
66741;SDS011;53654;54.152;19.432;2023-07-13T02:00:54;7.40;;;6.60;;
66741;SDS011;53654;54.152;19.432;2023-07-13T02:03:22;6.30;;;5.70;;
66741;SDS011;53654;54.152;19.432;2023-07-13T02:05:50;6.40;;;5.80;;
66741;SDS011;53654;54.152;19.432;2023-07-13T02:08:18;6.50;;;5.90;;
66741;SDS011;53654;54.152;19.432;2023-07-13T02:10:47;6.60;;;5.70;;
66741;SDS011;53654;54.152;19.432;2023-07-13T02:13:15;6.60;;;5.70;;
66741;SDS011;53654;54.152;19.432;2023-07-13T02:15:43;6.20;;;5.70;;
66741;SDS011;53654;54.152;19.432;2023-07-13T02:18:11;7.00;;;5.80;;
66741;SDS011;53654;54.152;19.432;2023-07-13T02:20:45;6.60;;;5.60;;
66741;SDS011;53654;54.152;19.432;2023-07-13T02:23:13;7.40;;;6.00;;
66741;SDS011;53654;54.152;19.432;2023-07-13T02:25:42;6.70;;;5.80;;
66741;SDS011;53654;54.152;19.432;2023-07-13T02:28:10;6.50;;;5.90;;
66741;SDS011;53654;54.152;19.432;2023-07-13T02:30:38;6.20;;;5.60;;
66741;SDS011;53654;54.152;19.432;2023-07-13T02:33:06;6.70;;;6.00;;
66741;SDS011;53654;54.152;19.432;2023-07-13T02:35:34;7.50;;;6.80;;
66741;SDS011;53654;54.152;19.432;2023-07-13T02:38:02;8.80;;;7.70;;
66741;SDS011;53654;54.152;19.432;2023-07-13T02:40:31;7.70;;;7.00;;
66741;SDS011;53654;54.152;19.432;2023-07-13T02:43:01;7.00;;;6.30;;
66741;SDS011;53654;54.152;19.432;2023-07-13T02:45:31;7.00;;;6.30;;
66741;SDS011;53654;54.152;19.432;2023-07-13T02:47:59;8.20;;;7.40;;
66741;SDS011;53654;54.152;19.432;2023-07-13T02:50:28;6.90;;;6.20;;
66741;SDS011;53654;54.152;19.432;2023-07-13T02:52:56;7.40;;;6.80;;
66741;SDS011;53654;54.152;19.432;2023-07-13T02:55:24;6.90;;;6.30;;
66741;SDS011;53654;54.152;19.432;2023-07-13T02:57:52;7.40;;;6.50;;
66741;SDS011;53654;54.152;19.432;2023-07-13T03:00:22;7.80;;;7.00;;
66741;SDS011;53654;54.152;19.432;2023-07-13T03:02:50;8.30;;;7.50;;
66741;SDS011;53654;54.152;19.432;2023-07-13T03:05:19;7.90;;;7.20;;
66741;SDS011;53654;54.152;19.432;2023-07-13T03:07:47;10.00;;;7.80;;
66741;SDS011;53654;54.152;19.432;2023-07-13T03:10:15;8.80;;;7.90;;
66741;SDS011;53654;54.152;19.432;2023-07-13T03:12:47;9.30;;;7.70;;
66741;SDS011;53654;54.152;19.432;2023-07-13T03:15:22;8.30;;;7.40;;
66741;SDS011;53654;54.152;19.432;2023-07-13T03:17:51;7.60;;;7.00;;
66741;SDS011;53654;54.152;19.432;2023-07-13T03:20:20;9.00;;;7.90;;
66741;SDS011;53654;54.152;19.432;2023-07-13T03:22:48;8.70;;;7.90;;
66741;SDS011;53654;54.152;19.432;2023-07-13T03:25:17;8.90;;;8.10;;
66741;SDS011;53654;54.152;19.432;2023-07-13T03:27:46;8.10;;;7.30;;
66741;SDS011;53654;54.152;19.432;2023-07-13T03:30:14;8.90;;;7.90;;
66741;SDS011;53654;54.152;19.432;2023-07-13T03:32:42;8.40;;;7.50;;
66741;SDS011;53654;54.152;19.432;2023-07-13T03:35:11;9.00;;;8.10;;
66741;SDS011;53654;54.152;19.432;2023-07-13T03:37:39;8.20;;;7.50;;
66741;SDS011;53654;54.152;19.432;2023-07-13T03:40:13;7.80;;;7.00;;
66741;SDS011;53654;54.152;19.432;2023-07-13T03:42:43;8.30;;;7.50;;
66741;SDS011;53654;54.152;19.432;2023-07-13T03:45:11;8.30;;;7.40;;
66741;SDS011;53654;54.152;19.432;2023-07-13T03:47:40;8.80;;;7.60;;
66741;SDS011;53654;54.152;19.432;2023-07-13T03:50:08;9.00;;;7.90;;
66741;SDS011;53654;54.152;19.432;2023-07-13T03:52:37;8.60;;;7.90;;
66741;SDS011;53654;54.152;19.432;2023-07-13T03:55:05;9.00;;;7.70;;
66741;SDS011;53654;54.152;19.432;2023-07-13T03:57:34;8.90;;;8.10;;
66741;SDS011;53654;54.152;19.432;2023-07-13T04:00:06;9.30;;;8.40;;
66741;SDS011;53654;54.152;19.432;2023-07-13T04:02:42;8.90;;;7.80;;
66741;SDS011;53654;54.152;19.432;2023-07-13T04:05:11;8.60;;;7.90;;
66741;SDS011;53654;54.152;19.432;2023-07-13T04:07:39;9.20;;;8.20;;
66741;SDS011;53654;54.152;19.432;2023-07-13T04:10:07;8.50;;;7.60;;
66741;SDS011;53654;54.152;19.432;2023-07-13T04:12:35;7.80;;;7.10;;
66741;SDS011;53654;54.152;19.432;2023-07-13T04:15:04;8.50;;;7.00;;
66741;SDS011;53654;54.152;19.432;2023-07-13T04:17:32;8.00;;;7.10;;
66741;SDS011;53654;54.152;19.432;2023-07-13T04:20:00;7.50;;;6.60;;
66741;SDS011;53654;54.152;19.432;2023-07-13T04:22:28;7.60;;;6.90;;
66741;SDS011;53654;54.152;19.432;2023-07-13T04:24:56;7.30;;;6.50;;
66741;SDS011;53654;54.152;19.432;2023-07-13T04:27:24;8.00;;;7.10;;
66741;SDS011;53654;54.152;19.432;2023-07-13T04:29:53;8.30;;;7.50;;
66741;SDS011;53654;54.152;19.432;2023-07-13T04:32:21;8.90;;;7.10;;
66741;SDS011;53654;54.152;19.432;2023-07-13T04:34:49;8.40;;;7.10;;
66741;SDS011;53654;54.152;19.432;2023-07-13T04:37:20;8.60;;;6.80;;
66741;SDS011;53654;54.152;19.432;2023-07-13T04:39:49;7.70;;;6.50;;
66741;SDS011;53654;54.152;19.432;2023-07-13T04:42:17;10.30;;;6.10;;
66741;SDS011;53654;54.152;19.432;2023-07-13T04:44:49;9.00;;;6.00;;
66741;SDS011;53654;54.152;19.432;2023-07-13T04:47:18;8.80;;;5.60;;
66741;SDS011;53654;54.152;19.432;2023-07-13T04:49:46;9.10;;;5.30;;
66741;SDS011;53654;54.152;19.432;2023-07-13T04:52:14;10.30;;;5.50;;
66741;SDS011;53654;54.152;19.432;2023-07-13T04:54:42;8.30;;;5.10;;
66741;SDS011;53654;54.152;19.432;2023-07-13T04:57:10;8.00;;;5.30;;
66741;SDS011;53654;54.152;19.432;2023-07-13T04:59:38;7.90;;;5.40;;
66741;SDS011;53654;54.152;19.432;2023-07-13T05:02:07;8.00;;;5.10;;
66741;SDS011;53654;54.152;19.432;2023-07-13T05:04:35;9.00;;;4.90;;
66741;SDS011;53654;54.152;19.432;2023-07-13T05:07:04;7.90;;;4.70;;
66741;SDS011;53654;54.152;19.432;2023-07-13T05:09:33;9.40;;;4.90;;
66741;SDS011;53654;54.152;19.432;2023-07-13T05:12:01;7.80;;;4.70;;
66741;SDS011;53654;54.152;19.432;2023-07-13T05:14:29;8.60;;;4.70;;
66741;SDS011;53654;54.152;19.432;2023-07-13T05:16:57;8.80;;;5.00;;
66741;SDS011;53654;54.152;19.432;2023-07-13T05:19:25;7.30;;;4.50;;
66741;SDS011;53654;54.152;19.432;2023-07-13T05:21:53;6.70;;;4.70;;
66741;SDS011;53654;54.152;19.432;2023-07-13T05:24:22;7.60;;;4.70;;
66741;SDS011;53654;54.152;19.432;2023-07-13T05:26:52;7.60;;;4.60;;
66741;SDS011;53654;54.152;19.432;2023-07-13T05:29:21;8.80;;;4.90;;
66741;SDS011;53654;54.152;19.432;2023-07-13T05:31:49;9.20;;;4.30;;
66741;SDS011;53654;54.152;19.432;2023-07-13T05:34:18;7.80;;;4.50;;
66741;SDS011;53654;54.152;19.432;2023-07-13T05:36:46;9.50;;;4.60;;
66741;SDS011;53654;54.152;19.432;2023-07-13T05:39:15;8.20;;;4.30;;
66741;SDS011;53654;54.152;19.432;2023-07-13T05:41:43;11.90;;;4.80;;
66741;SDS011;53654;54.152;19.432;2023-07-13T05:44:11;10.00;;;4.30;;
66741;SDS011;53654;54.152;19.432;2023-07-13T05:46:40;9.70;;;4.50;;
66741;SDS011;53654;54.152;19.432;2023-07-13T05:49:08;9.10;;;4.30;;
66741;SDS011;53654;54.152;19.432;2023-07-13T05:51:36;9.50;;;4.70;;
66741;SDS011;53654;54.152;19.432;2023-07-13T05:54:04;11.10;;;4.40;;
66741;SDS011;53654;54.152;19.432;2023-07-13T05:56:32;8.40;;;4.60;;
66741;SDS011;53654;54.152;19.432;2023-07-13T05:59:01;8.80;;;4.80;;
66741;SDS011;53654;54.152;19.432;2023-07-13T06:01:29;11.20;;;4.70;;
66741;SDS011;53654;54.152;19.432;2023-07-13T06:03:57;10.60;;;4.70;;
66741;SDS011;53654;54.152;19.432;2023-07-13T06:06:26;10.00;;;4.90;;
66741;SDS011;53654;54.152;19.432;2023-07-13T06:08:54;8.80;;;4.60;;
66741;SDS011;53654;54.152;19.432;2023-07-13T06:11:23;11.40;;;4.20;;
66741;SDS011;53654;54.152;19.432;2023-07-13T06:13:52;8.80;;;4.00;;
66741;SDS011;53654;54.152;19.432;2023-07-13T06:16:20;10.30;;;4.20;;
66741;SDS011;53654;54.152;19.432;2023-07-13T06:18:48;8.80;;;3.80;;
66741;SDS011;53654;54.152;19.432;2023-07-13T06:21:17;5.90;;;3.80;;
66741;SDS011;53654;54.152;19.432;2023-07-13T06:23:48;7.80;;;3.60;;
66741;SDS011;53654;54.152;19.432;2023-07-13T06:26:19;8.50;;;3.50;;
66741;SDS011;53654;54.152;19.432;2023-07-13T06:28:48;7.60;;;3.70;;
66741;SDS011;53654;54.152;19.432;2023-07-13T06:31:16;7.20;;;3.60;;
66741;SDS011;53654;54.152;19.432;2023-07-13T06:33:44;4.90;;;3.10;;
66741;SDS011;53654;54.152;19.432;2023-07-13T06:36:13;5.60;;;2.70;;
66741;SDS011;53654;54.152;19.432;2023-07-13T06:38:41;5.60;;;2.90;;
66741;SDS011;53654;54.152;19.432;2023-07-13T06:41:09;5.40;;;2.90;;
66741;SDS011;53654;54.152;19.432;2023-07-13T06:43:38;5.90;;;2.70;;
66741;SDS011;53654;54.152;19.432;2023-07-13T06:46:06;7.80;;;2.90;;
66741;SDS011;53654;54.152;19.432;2023-07-13T06:48:34;5.40;;;2.80;;
66741;SDS011;53654;54.152;19.432;2023-07-13T06:51:02;6.50;;;2.90;;
66741;SDS011;53654;54.152;19.432;2023-07-13T06:53:30;5.20;;;2.50;;
66741;SDS011;53654;54.152;19.432;2023-07-13T06:55:58;5.30;;;2.70;;
66741;SDS011;53654;54.152;19.432;2023-07-13T06:58:26;6.30;;;2.70;;
66741;SDS011;53654;54.152;19.432;2023-07-13T07:00:54;4.80;;;2.70;;
66741;SDS011;53654;54.152;19.432;2023-07-13T07:03:23;5.00;;;2.40;;
66741;SDS011;53654;54.152;19.432;2023-07-13T07:05:51;4.80;;;2.30;;
66741;SDS011;53654;54.152;19.432;2023-07-13T07:08:19;4.20;;;2.00;;
66741;SDS011;53654;54.152;19.432;2023-07-13T07:10:47;4.00;;;2.20;;
66741;SDS011;53654;54.152;19.432;2023-07-13T07:13:19;5.60;;;2.50;;
66741;SDS011;53654;54.152;19.432;2023-07-13T07:15:49;4.20;;;2.30;;
66741;SDS011;53654;54.152;19.432;2023-07-13T07:18:17;5.40;;;2.40;;
66741;SDS011;53654;54.152;19.432;2023-07-13T07:20:45;5.10;;;2.20;;
66741;SDS011;53654;54.152;19.432;2023-07-13T07:23:13;4.30;;;2.10;;
66741;SDS011;53654;54.152;19.432;2023-07-13T07:25:43;4.00;;;2.20;;
66741;SDS011;53654;54.152;19.432;2023-07-13T07:28:12;3.80;;;2.20;;
66741;SDS011;53654;54.152;19.432;2023-07-13T07:31:02;3.10;;;2.00;;
66741;SDS011;53654;54.152;19.432;2023-07-13T07:33:33;4.10;;;2.00;;
66741;SDS011;53654;54.152;19.432;2023-07-13T07:36:02;4.30;;;2.00;;
66741;SDS011;53654;54.152;19.432;2023-07-13T07:38:34;4.60;;;2.10;;
66741;SDS011;53654;54.152;19.432;2023-07-13T07:41:05;4.00;;;1.80;;
66741;SDS011;53654;54.152;19.432;2023-07-13T07:43:36;4.00;;;1.90;;
66741;SDS011;53654;54.152;19.432;2023-07-13T07:46:04;4.90;;;2.10;;
66741;SDS011;53654;54.152;19.432;2023-07-13T07:48:33;3.80;;;2.10;;
66741;SDS011;53654;54.152;19.432;2023-07-13T07:51:01;3.40;;;2.10;;
66741;SDS011;53654;54.152;19.432;2023-07-13T07:53:29;4.40;;;2.00;;
66741;SDS011;53654;54.152;19.432;2023-07-13T07:56:00;3.60;;;2.10;;
66741;SDS011;53654;54.152;19.432;2023-07-13T07:58:48;3.70;;;2.10;;
66741;SDS011;53654;54.152;19.432;2023-07-13T08:01:19;5.10;;;2.50;;
66741;SDS011;53654;54.152;19.432;2023-07-13T08:03:50;4.80;;;2.30;;
66741;SDS011;53654;54.152;19.432;2023-07-13T08:06:21;6.50;;;2.40;;
66741;SDS011;53654;54.152;19.432;2023-07-13T08:08:53;3.80;;;1.90;;
66741;SDS011;53654;54.152;19.432;2023-07-13T08:11:22;6.00;;;2.20;;
66741;SDS011;53654;54.152;19.432;2023-07-13T08:13:53;4.20;;;2.20;;
66741;SDS011;53654;54.152;19.432;2023-07-13T08:16:22;6.20;;;2.20;;
66741;SDS011;53654;54.152;19.432;2023-07-13T08:18:51;4.30;;;2.00;;
66741;SDS011;53654;54.152;19.432;2023-07-13T08:21:19;4.50;;;2.10;;
66741;SDS011;53654;54.152;19.432;2023-07-13T08:23:48;3.70;;;2.00;;
66741;SDS011;53654;54.152;19.432;2023-07-13T08:26:16;4.20;;;2.10;;
66741;SDS011;53654;54.152;19.432;2023-07-13T08:28:44;5.50;;;2.40;;
66741;SDS011;53654;54.152;19.432;2023-07-13T08:31:12;2.70;;;2.00;;
66741;SDS011;53654;54.152;19.432;2023-07-13T08:33:42;3.40;;;2.00;;
66741;SDS011;53654;54.152;19.432;2023-07-13T08:36:10;3.80;;;2.00;;
66741;SDS011;53654;54.152;19.432;2023-07-13T08:38:38;3.30;;;1.90;;
66741;SDS011;53654;54.152;19.432;2023-07-13T08:41:11;3.10;;;1.60;;
66741;SDS011;53654;54.152;19.432;2023-07-13T08:43:42;3.40;;;1.80;;
66741;SDS011;53654;54.152;19.432;2023-07-13T08:46:33;3.80;;;1.80;;
66741;SDS011;53654;54.152;19.432;2023-07-13T08:49:11;2.40;;;1.70;;
66741;SDS011;53654;54.152;19.432;2023-07-13T08:56:50;2.40;;;1.80;;
66741;SDS011;53654;54.152;19.432;2023-07-13T08:59:22;4.10;;;1.80;;
66741;SDS011;53654;54.152;19.432;2023-07-13T09:02:04;5.30;;;3.60;;
66741;SDS011;53654;54.152;19.432;2023-07-13T09:04:37;3.50;;;1.90;;
66741;SDS011;53654;54.152;19.432;2023-07-13T09:07:14;4.20;;;2.00;;
66741;SDS011;53654;54.152;19.432;2023-07-13T09:09:52;4.00;;;1.80;;
66741;SDS011;53654;54.152;19.432;2023-07-13T09:12:45;3.70;;;1.90;;
66741;SDS011;53654;54.152;19.432;2023-07-13T09:15:30;3.70;;;2.00;;
66741;SDS011;53654;54.152;19.432;2023-07-13T09:18:16;5.30;;;2.00;;
66741;SDS011;53654;54.152;19.432;2023-07-13T09:21:03;4.20;;;1.60;;
66741;SDS011;53654;54.152;19.432;2023-07-13T09:23:44;2.60;;;1.80;;
66741;SDS011;53654;54.152;19.432;2023-07-13T09:26:14;4.90;;;2.00;;
66741;SDS011;53654;54.152;19.432;2023-07-13T09:28:48;3.50;;;1.80;;
66741;SDS011;53654;54.152;19.432;2023-07-13T09:31:39;2.80;;;1.90;;
66741;SDS011;53654;54.152;19.432;2023-07-13T09:34:13;4.00;;;1.90;;
66741;SDS011;53654;54.152;19.432;2023-07-13T09:36:41;3.00;;;2.10;;
66741;SDS011;53654;54.152;19.432;2023-07-13T09:39:29;3.60;;;2.30;;
66741;SDS011;53654;54.152;19.432;2023-07-13T09:44:55;3.00;;;1.80;;
66741;SDS011;53654;54.152;19.432;2023-07-13T09:47:26;3.40;;;1.90;;
66741;SDS011;53654;54.152;19.432;2023-07-13T09:50:00;3.80;;;1.90;;
66741;SDS011;53654;54.152;19.432;2023-07-13T09:52:39;2.40;;;1.80;;
66741;SDS011;53654;54.152;19.432;2023-07-13T09:57:54;2.80;;;2.10;;
66741;SDS011;53654;54.152;19.432;2023-07-13T10:00:27;3.50;;;1.90;;
66741;SDS011;53654;54.152;19.432;2023-07-13T10:02:58;2.80;;;2.00;;
66741;SDS011;53654;54.152;19.432;2023-07-13T10:05:39;3.20;;;1.90;;
66741;SDS011;53654;54.152;19.432;2023-07-13T10:08:23;3.00;;;2.00;;
66741;SDS011;53654;54.152;19.432;2023-07-13T10:11:00;3.80;;;2.10;;
66741;SDS011;53654;54.152;19.432;2023-07-13T10:13:37;2.70;;;1.90;;
66741;SDS011;53654;54.152;19.432;2023-07-13T10:16:12;4.00;;;1.90;;
66741;SDS011;53654;54.152;19.432;2023-07-13T10:18:50;3.60;;;1.90;;
66741;SDS011;53654;54.152;19.432;2023-07-13T10:21:23;3.30;;;1.90;;
66741;SDS011;53654;54.152;19.432;2023-07-13T10:24:15;3.50;;;1.90;;
66741;SDS011;53654;54.152;19.432;2023-07-13T10:26:57;4.50;;;2.10;;
66741;SDS011;53654;54.152;19.432;2023-07-13T10:29:36;3.80;;;2.30;;
66741;SDS011;53654;54.152;19.432;2023-07-13T10:32:09;4.60;;;2.30;;
66741;SDS011;53654;54.152;19.432;2023-07-13T10:34:40;5.40;;;2.20;;
66741;SDS011;53654;54.152;19.432;2023-07-13T10:37:16;3.60;;;1.90;;
66741;SDS011;53654;54.152;19.432;2023-07-13T10:39:48;2.90;;;1.90;;
66741;SDS011;53654;54.152;19.432;2023-07-13T10:42:30;3.40;;;2.10;;
66741;SDS011;53654;54.152;19.432;2023-07-13T10:45:11;3.90;;;2.10;;
66741;SDS011;53654;54.152;19.432;2023-07-13T10:47:42;2.10;;;1.80;;
66741;SDS011;53654;54.152;19.432;2023-07-13T10:50:17;3.30;;;1.90;;
66741;SDS011;53654;54.152;19.432;2023-07-13T10:52:49;4.40;;;2.00;;
66741;SDS011;53654;54.152;19.432;2023-07-13T10:58:21;3.40;;;1.90;;
66741;SDS011;53654;54.152;19.432;2023-07-13T11:08:53;3.80;;;2.40;;
66741;SDS011;53654;54.152;19.432;2023-07-13T11:18:49;3.90;;;2.10;;
66741;SDS011;53654;54.152;19.432;2023-07-13T11:21:20;4.10;;;2.30;;
66741;SDS011;53654;54.152;19.432;2023-07-13T11:24:33;4.50;;;2.40;;
66741;SDS011;53654;54.152;19.432;2023-07-13T11:26:56;5.10;;;2.40;;
66741;SDS011;53654;54.152;19.432;2023-07-13T11:31:53;4.20;;;1.90;;
66741;SDS011;53654;54.152;19.432;2023-07-13T11:34:35;3.40;;;2.10;;
66741;SDS011;53654;54.152;19.432;2023-07-13T11:37:10;3.30;;;1.80;;
66741;SDS011;53654;54.152;19.432;2023-07-13T11:39:42;3.00;;;2.00;;
66741;SDS011;53654;54.152;19.432;2023-07-13T11:42:16;3.80;;;2.10;;
66741;SDS011;53654;54.152;19.432;2023-07-13T11:44:46;2.50;;;1.90;;
66741;SDS011;53654;54.152;19.432;2023-07-13T11:47:39;5.00;;;2.80;;
66741;SDS011;53654;54.152;19.432;2023-07-13T11:50:18;5.40;;;2.60;;
66741;SDS011;53654;54.152;19.432;2023-07-13T11:52:52;2.70;;;1.80;;
66741;SDS011;53654;54.152;19.432;2023-07-13T11:55:23;5.20;;;2.40;;
66741;SDS011;53654;54.152;19.432;2023-07-13T11:57:59;2.60;;;1.80;;
66741;SDS011;53654;54.152;19.432;2023-07-13T12:00:29;3.90;;;2.10;;
66741;SDS011;53654;54.152;19.432;2023-07-13T12:03:01;3.60;;;2.10;;
66741;SDS011;53654;54.152;19.432;2023-07-13T12:05:33;3.10;;;1.90;;
66741;SDS011;53654;54.152;19.432;2023-07-13T12:08:08;4.80;;;2.10;;
66741;SDS011;53654;54.152;19.432;2023-07-13T12:10:56;4.10;;;2.00;;
66741;SDS011;53654;54.152;19.432;2023-07-13T12:13:27;3.40;;;2.00;;
66741;SDS011;53654;54.152;19.432;2023-07-13T12:15:57;3.70;;;2.00;;
66741;SDS011;53654;54.152;19.432;2023-07-13T12:18:28;3.70;;;2.10;;
66741;SDS011;53654;54.152;19.432;2023-07-13T12:20:58;3.90;;;2.10;;
66741;SDS011;53654;54.152;19.432;2023-07-13T12:25:57;3.70;;;2.00;;
66741;SDS011;53654;54.152;19.432;2023-07-13T12:28:34;5.90;;;2.30;;
66741;SDS011;53654;54.152;19.432;2023-07-13T12:31:06;6.10;;;2.50;;
66741;SDS011;53654;54.152;19.432;2023-07-13T12:33:48;4.60;;;2.40;;
66741;SDS011;53654;54.152;19.432;2023-07-13T12:36:23;5.80;;;2.90;;
66741;SDS011;53654;54.152;19.432;2023-07-13T12:38:52;6.20;;;3.00;;
66741;SDS011;53654;54.152;19.432;2023-07-13T12:41:20;6.00;;;3.20;;
66741;SDS011;53654;54.152;19.432;2023-07-13T12:43:50;4.90;;;3.30;;
66741;SDS011;53654;54.152;19.432;2023-07-13T12:46:21;4.70;;;3.30;;
66741;SDS011;53654;54.152;19.432;2023-07-13T12:48:53;5.00;;;3.00;;
66741;SDS011;53654;54.152;19.432;2023-07-13T12:51:39;4.70;;;2.80;;
66741;SDS011;53654;54.152;19.432;2023-07-13T12:54:13;4.00;;;3.30;;
66741;SDS011;53654;54.152;19.432;2023-07-13T12:56:44;4.60;;;3.20;;
66741;SDS011;53654;54.152;19.432;2023-07-13T12:59:18;5.60;;;2.80;;
66741;SDS011;53654;54.152;19.432;2023-07-13T13:01:49;3.50;;;2.60;;
66741;SDS011;53654;54.152;19.432;2023-07-13T13:04:18;5.30;;;3.00;;
66741;SDS011;53654;54.152;19.432;2023-07-13T13:06:59;4.00;;;2.60;;
66741;SDS011;53654;54.152;19.432;2023-07-13T13:09:29;3.90;;;2.90;;
66741;SDS011;53654;54.152;19.432;2023-07-13T13:11:57;4.70;;;3.40;;
66741;SDS011;53654;54.152;19.432;2023-07-13T13:14:26;4.80;;;3.00;;
66741;SDS011;53654;54.152;19.432;2023-07-13T13:16:54;5.80;;;2.70;;
66741;SDS011;53654;54.152;19.432;2023-07-13T13:19:27;4.10;;;2.60;;
66741;SDS011;53654;54.152;19.432;2023-07-13T13:21:56;3.40;;;2.40;;
66741;SDS011;53654;54.152;19.432;2023-07-13T13:24:26;4.30;;;2.60;;
66741;SDS011;53654;54.152;19.432;2023-07-13T13:26:55;3.70;;;2.20;;
66741;SDS011;53654;54.152;19.432;2023-07-13T13:29:25;3.80;;;2.70;;
66741;SDS011;53654;54.152;19.432;2023-07-13T13:31:54;4.40;;;2.90;;
66741;SDS011;53654;54.152;19.432;2023-07-13T13:34:23;3.20;;;2.50;;
66741;SDS011;53654;54.152;19.432;2023-07-13T13:36:53;3.70;;;2.20;;
66741;SDS011;53654;54.152;19.432;2023-07-13T13:41:55;3.20;;;2.30;;
66741;SDS011;53654;54.152;19.432;2023-07-13T13:44:23;5.00;;;2.20;;
66741;SDS011;53654;54.152;19.432;2023-07-13T13:46:52;3.00;;;1.80;;
66741;SDS011;53654;54.152;19.432;2023-07-13T13:49:23;2.70;;;1.80;;
66741;SDS011;53654;54.152;19.432;2023-07-13T13:51:54;2.70;;;1.80;;
66741;SDS011;53654;54.152;19.432;2023-07-13T13:54:23;2.80;;;1.80;;
66741;SDS011;53654;54.152;19.432;2023-07-13T13:56:53;2.80;;;1.70;;
66741;SDS011;53654;54.152;19.432;2023-07-13T13:59:21;3.30;;;1.80;;
66741;SDS011;53654;54.152;19.432;2023-07-13T14:01:49;2.90;;;1.60;;
66741;SDS011;53654;54.152;19.432;2023-07-13T14:04:18;2.60;;;1.50;;
66741;SDS011;53654;54.152;19.432;2023-07-13T14:06:48;2.90;;;1.70;;
66741;SDS011;53654;54.152;19.432;2023-07-13T14:09:18;3.00;;;1.50;;
66741;SDS011;53654;54.152;19.432;2023-07-13T14:11:47;2.80;;;1.80;;
66741;SDS011;53654;54.152;19.432;2023-07-13T14:14:19;3.20;;;1.60;;
66741;SDS011;53654;54.152;19.432;2023-07-13T14:16:50;2.70;;;1.60;;
66741;SDS011;53654;54.152;19.432;2023-07-13T14:19:24;2.30;;;1.50;;
66741;SDS011;53654;54.152;19.432;2023-07-13T14:21:52;2.60;;;1.60;;
66741;SDS011;53654;54.152;19.432;2023-07-13T14:24:22;3.80;;;1.90;;
66741;SDS011;53654;54.152;19.432;2023-07-13T14:26:50;2.90;;;1.70;;
66741;SDS011;53654;54.152;19.432;2023-07-13T14:29:18;1.70;;;1.40;;
66741;SDS011;53654;54.152;19.432;2023-07-13T14:31:51;2.10;;;1.50;;
66741;SDS011;53654;54.152;19.432;2023-07-13T14:34:20;1.90;;;1.40;;
66741;SDS011;53654;54.152;19.432;2023-07-13T14:36:48;2.50;;;1.50;;
66741;SDS011;53654;54.152;19.432;2023-07-13T14:39:19;2.50;;;1.40;;
66741;SDS011;53654;54.152;19.432;2023-07-13T14:41:50;2.20;;;1.50;;
66741;SDS011;53654;54.152;19.432;2023-07-13T14:44:21;2.30;;;1.30;;
66741;SDS011;53654;54.152;19.432;2023-07-13T14:46:53;2.80;;;1.50;;
66741;SDS011;53654;54.152;19.432;2023-07-13T14:51:57;1.90;;;1.40;;
66741;SDS011;53654;54.152;19.432;2023-07-13T14:54:27;2.10;;;1.60;;
66741;SDS011;53654;54.152;19.432;2023-07-13T14:56:56;2.50;;;1.30;;
66741;SDS011;53654;54.152;19.432;2023-07-13T14:59:24;3.10;;;1.50;;
66741;SDS011;53654;54.152;19.432;2023-07-13T15:01:52;2.10;;;1.40;;
66741;SDS011;53654;54.152;19.432;2023-07-13T15:04:20;3.50;;;1.30;;
66741;SDS011;53654;54.152;19.432;2023-07-13T15:06:55;2.70;;;1.40;;
66741;SDS011;53654;54.152;19.432;2023-07-13T15:09:27;1.80;;;1.30;;
66741;SDS011;53654;54.152;19.432;2023-07-13T15:11:57;2.80;;;1.40;;
66741;SDS011;53654;54.152;19.432;2023-07-13T15:14:26;2.90;;;1.40;;
66741;SDS011;53654;54.152;19.432;2023-07-13T15:16:58;3.30;;;1.90;;
66741;SDS011;53654;54.152;19.432;2023-07-13T15:19:27;3.00;;;1.50;;
66741;SDS011;53654;54.152;19.432;2023-07-13T15:21:55;2.20;;;1.60;;
66741;SDS011;53654;54.152;19.432;2023-07-13T15:24:28;2.10;;;1.30;;
66741;SDS011;53654;54.152;19.432;2023-07-13T15:26:57;2.50;;;1.50;;
66741;SDS011;53654;54.152;19.432;2023-07-13T15:29:25;2.70;;;1.40;;
66741;SDS011;53654;54.152;19.432;2023-07-13T15:31:53;2.00;;;1.20;;
66741;SDS011;53654;54.152;19.432;2023-07-13T15:34:24;3.20;;;1.60;;
66741;SDS011;53654;54.152;19.432;2023-07-13T15:36:54;3.90;;;1.60;;